Time;durP1;ratioP1;P1;durP2;ratioP2;P2;SDS_P1;SDS_P2;PMS_P1;PMS_P2;Temp;Humidity;BMP_temperature;BMP_pressure;BME280_temperature;BME280_humidity;BME280_pressure;Samples;Min_cycle;Max_cycle;Signal;HPM_P1;HPM_P2
2022/08/03 00:03:40;;;;;;;4.78;2.13;;;;;;;-147.53;100.00;57128.34;10338853;28;20441;-85
2022/08/03 00:08:42;;;;;;;7.13;2.50;;;;;;;-147.53;100.00;57128.34;10314922;28;20042;-83
2022/08/03 00:13:44;;;;;;;3.38;1.75;;;;;;;-147.53;100.00;57128.34;10313166;28;20395;-84
2022/08/03 00:18:45;;;;;;;6.95;2.40;;;;;;;-147.53;100.00;57128.34;10332991;28;20080;-84
2022/08/03 00:23:47;;;;;;;5.30;2.50;;;;;;;-147.53;100.00;57128.34;10312587;28;20042;-83
2022/08/03 00:28:53;;;;;;;4.30;2.53;;;;;;;-147.53;100.00;57128.34;10334366;28;20077;-84
2022/08/03 00:33:54;;;;;;;7.43;2.25;;;;;;;-147.53;100.00;57128.34;10324757;28;20053;-84
2022/08/03 00:39:03;;;;;;;9.52;2.22;;;;;;;-147.53;100.00;57128.34;10332333;28;20049;-83
2022/08/03 00:44:05;;;;;;;5.05;2.20;;;;;;;-147.53;100.00;57128.34;10332183;28;20043;-84
2022/08/03 00:49:07;;;;;;;5.90;2.22;;;;;;;-147.53;100.00;57128.34;10339244;28;20186;-84
2022/08/03 00:54:09;;;;;;;9.80;2.50;;;;;;;-147.53;100.00;57128.34;10315218;28;20134;-84
2022/08/03 00:59:11;;;;;;;4.70;1.98;;;;;;;-147.53;100.00;57128.34;10329076;28;20466;-84
2022/08/03 01:04:14;;;;;;;3.90;2.05;;;;;;;-147.53;100.00;57128.34;10342624;28;20294;-84
2022/08/03 01:09:43;;;;;;;12.05;2.30;;;;;;;-147.53;100.00;57128.34;10340895;28;20058;-84
2022/08/03 01:14:57;;;;;;;4.72;2.28;;;;;;;-147.53;100.00;57128.34;10335124;28;20046;-84
2022/08/03 01:20:06;;;;;;;4.93;2.30;;;;;;;-147.53;100.00;57128.34;10336313;28;20508;-83
2022/08/03 01:25:39;;;;;;;5.10;2.20;;;;;;;-147.53;100.00;57128.34;10309838;28;20510;-84
2022/08/03 01:30:44;;;;;;;4.53;2.25;;;;;;;-147.53;100.00;57128.34;10348506;28;20402;-84
2022/08/03 01:36:03;;;;;;;4.65;2.28;;;;;;;-147.53;100.00;57128.34;10315586;28;20066;-85
2022/08/03 01:41:17;;;;;;;8.77;2.30;;;;;;;-147.53;100.00;57128.34;10333718;28;20061;-83
2022/08/03 01:46:20;;;;;;;4.32;2.20;;;;;;;-147.53;100.00;57128.34;10343387;28;20057;-84
2022/08/03 01:51:46;;;;;;;7.80;2.70;;;;;;;-147.53;100.00;57128.34;10335181;28;20062;-84
2022/08/03 01:57:08;;;;;;;8.75;2.60;;;;;;;-147.53;100.00;57128.34;10342630;28;20064;-84
2022/08/03 02:02:14;;;;;;;5.28;2.20;;;;;;;-147.53;100.00;57128.34;10338333;28;20060;-84
2022/08/03 02:07:35;;;;;;;6.63;2.78;;;;;;;-147.53;100.00;57128.34;10345495;28;20046;-84
2022/08/03 02:12:39;;;;;;;6.43;2.75;;;;;;;-147.53;100.00;57128.34;10344877;28;20081;-84
2022/08/03 02:17:42;;;;;;;6.88;2.85;;;;;;;-147.53;100.00;57128.34;10342108;28;20081;-83
2022/08/03 02:22:45;;;;;;;6.60;3.15;;;;;;;-147.53;100.00;57128.34;10318802;28;20046;-83
2022/08/03 02:28:03;;;;;;;5.07;2.38;;;;;;;-147.53;100.00;57128.34;10336530;28;20545;-84
2022/08/03 02:33:17;;;;;;;5.43;2.75;;;;;;;-147.53;100.00;57128.34;10336566;28;20046;-83
2022/08/03 02:38:22;;;;;;;5.70;2.88;;;;;;;-147.53;100.00;57128.34;10333692;28;20478;-84
2022/08/03 02:43:25;;;;;;;9.55;3.15;;;;;;;-147.53;100.00;57128.34;10332140;28;20112;-82
2022/08/03 02:48:29;;;;;;;5.30;2.60;;;;;;;-147.53;100.00;57128.34;10335481;28;20042;-83
2022/08/03 02:53:33;;;;;;;7.10;2.70;;;;;;;-147.53;100.00;57128.34;10317260;28;20044;-83
2022/08/03 02:58:38;;;;;;;7.05;3.00;;;;;;;-147.53;100.00;57128.34;10340288;28;20131;-83
2022/08/03 03:03:40;;;;;;;6.70;2.85;;;;;;;-147.53;100.00;57128.34;10336167;28;20505;-82
2022/08/03 03:08:46;;;;;;;4.65;2.88;;;;;;;-147.53;100.00;57128.34;10321569;28;20062;-84
2022/08/03 03:13:49;;;;;;;5.75;2.97;;;;;;;-147.53;100.00;57128.34;10328985;28;20097;-84
2022/08/03 03:18:53;;;;;;;5.85;3.10;;;;;;;-147.53;100.00;57128.34;10322044;28;20053;-84
2022/08/03 03:23:56;;;;;;;5.97;3.17;;;;;;;-147.53;100.00;57128.34;10329928;28;20717;-83
2022/08/03 03:28:58;;;;;;;5.88;2.80;;;;;;;-147.53;100.00;57128.34;10320059;28;20101;-84
2022/08/03 03:34:00;;;;;;;8.93;4.07;;;;;;;-147.53;100.00;57128.34;10336328;28;20073;-83
2022/08/03 03:39:02;;;;;;;6.07;3.00;;;;;;;-147.53;100.00;57128.34;10315164;28;20505;-84
2022/08/03 03:44:17;;;;;;;6.15;3.33;;;;;;;-147.53;100.00;57128.34;10328503;28;20133;-83
2022/08/03 03:49:19;;;;;;;6.45;3.55;;;;;;;-147.53;100.00;57128.34;10328821;28;20544;-83
2022/08/03 03:54:21;;;;;;;7.47;3.08;;;;;;;-147.53;100.00;57128.34;10333507;28;20042;-83
2022/08/03 03:59:29;;;;;;;11.60;3.80;;;;;;;-147.53;100.00;57128.34;10299012;28;20082;-83
2022/08/03 04:15:21;;;;;;;11.52;4.10;;;;;;;-147.53;100.00;57128.34;10339613;28;20042;-83
2022/08/03 04:20:29;;;;;;;8.40;4.00;;;;;;;-147.53;100.00;57128.34;10345199;28;20073;-83
2022/08/03 04:25:35;;;;;;;11.02;4.72;;;;;;;-147.53;100.00;57128.34;10333921;28;20106;-83
2022/08/03 04:30:39;;;;;;;9.23;4.53;;;;;;;-147.53;100.00;57128.34;10335438;28;20065;-84
2022/08/03 04:35:43;;;;;;;10.52;4.85;;;;;;;-147.53;100.00;57128.34;10330249;28;20089;-84
2022/08/03 04:41:03;;;;;;;11.52;5.97;;;;;;;-147.53;100.00;57128.34;10344734;28;20120;-83
2022/08/03 04:46:07;;;;;;;13.30;5.53;;;;;;;-147.53;100.00;57128.34;10328821;28;20064;-83
2022/08/03 04:51:09;;;;;;;11.10;6.15;;;;;;;-147.53;100.00;57128.34;10335830;28;20066;-83
2022/08/03 04:56:11;;;;;;;10.57;6.00;;;;;;;-147.53;100.00;57128.34;10313512;28;20074;-83
2022/08/03 05:01:15;;;;;;;11.93;5.97;;;;;;;-147.53;100.00;57128.34;10331756;28;20046;-83
2022/08/03 05:06:16;;;;;;;10.55;5.57;;;;;;;-147.53;100.00;57128.34;10318061;28;20754;-83
2022/08/03 05:11:18;;;;;;;10.63;5.30;;;;;;;-147.53;100.00;57128.34;10325943;28;20050;-83
2022/08/03 05:16:20;;;;;;;20.30;5.97;;;;;;;-147.53;100.00;57128.34;10336709;28;20597;-83
2022/08/03 05:21:21;;;;;;;9.60;5.55;;;;;;;-147.53;100.00;57128.34;10338239;28;20058;-83
2022/08/03 05:26:23;;;;;;;19.35;6.10;;;;;;;-147.53;100.00;57128.34;10339131;28;20050;-83
2022/08/03 05:31:27;;;;;;;10.85;4.90;;;;;;;-147.53;100.00;57128.34;10327153;28;20065;-82
2022/08/03 05:36:29;;;;;;;11.77;5.88;;;;;;;-147.53;100.00;57128.34;10324384;28;20101;-82
2022/08/03 05:41:31;;;;;;;9.80;5.13;;;;;;;-147.53;100.00;57128.34;10322645;28;20225;-83
2022/08/03 05:46:38;;;;;;;10.02;5.03;;;;;;;-147.53;100.00;57128.34;10336999;28;20130;-83
2022/08/03 05:51:40;;;;;;;16.50;5.28;;;;;;;-147.53;100.00;57128.34;10317075;28;20480;-83
2022/08/03 05:56:42;;;;;;;16.08;4.95;;;;;;;-147.53;100.00;57128.34;10317737;28;20535;-82
2022/08/03 06:01:45;;;;;;;10.38;5.20;;;;;;;-147.53;100.00;57128.34;10342448;28;20123;-83
2022/08/03 06:06:49;;;;;;;14.38;5.20;;;;;;;-147.53;100.00;57128.34;10308123;28;20446;-84
2022/08/03 06:11:51;;;;;;;12.23;4.72;;;;;;;-147.53;100.00;57128.34;10333970;28;20062;-85
2022/08/03 06:16:53;;;;;;;13.63;5.25;;;;;;;-147.53;100.00;57128.34;10332411;28;20074;-85
2022/08/03 06:21:55;;;;;;;14.68;5.45;;;;;;;-147.53;100.00;57128.34;10303095;28;20064;-83
2022/08/03 06:26:56;;;;;;;14.90;4.60;;;;;;;-147.53;100.00;57128.34;10312181;28;20042;-84
2022/08/03 06:31:58;;;;;;;10.27;4.15;;;;;;;-147.53;100.00;57128.34;10314208;28;20060;-83
2022/08/03 06:37:00;;;;;;;10.93;4.20;;;;;;;-147.53;100.00;57128.34;10331986;28;20069;-83
2022/08/03 06:42:03;;;;;;;11.68;4.00;;;;;;;-147.53;100.00;57128.34;10318079;28;20103;-83
2022/08/03 06:47:06;;;;;;;8.20;3.65;;;;;;;-147.53;100.00;57128.34;10319560;28;20632;-83
2022/08/03 06:52:09;;;;;;;13.57;4.30;;;;;;;-147.53;100.00;57128.34;10321771;28;20461;-83
2022/08/03 06:57:11;;;;;;;10.95;4.03;;;;;;;-147.53;100.00;57128.34;10345348;28;20508;-83
2022/08/03 07:02:13;;;;;;;10.73;4.00;;;;;;;-147.53;100.00;57128.34;10325903;28;20053;-82
2022/08/03 07:07:19;;;;;;;9.93;3.38;;;;;;;-147.53;100.00;57128.34;10336603;28;20100;-83
2022/08/03 07:12:21;;;;;;;8.23;2.90;;;;;;;-147.53;100.00;57128.34;10340411;28;20113;-83
2022/08/03 07:17:23;;;;;;;10.65;3.60;;;;;;;-147.53;100.00;57128.34;10315429;28;20081;-83
2022/08/03 07:22:25;;;;;;;12.52;2.60;;;;;;;-147.53;100.00;57128.34;10319990;28;20058;-82
2022/08/03 07:27:28;;;;;;;10.02;2.78;;;;;;;-147.53;100.00;57128.34;10324007;28;20051;-83
2022/08/03 07:32:30;;;;;;;7.63;2.70;;;;;;;-147.53;100.00;57128.34;10340545;28;20390;-84
2022/08/03 07:37:32;;;;;;;9.32;2.83;;;;;;;-147.53;100.00;57128.34;10317000;28;20115;-84
2022/08/03 07:42:34;;;;;;;13.30;3.53;;;;;;;-147.53;100.00;57128.34;10325418;28;20089;-84
2022/08/03 07:47:35;;;;;;;13.32;2.97;;;;;;;-147.53;100.00;57128.34;10334087;28;20060;-84
2022/08/03 07:52:46;;;;;;;12.57;3.33;;;;;;;-147.53;100.00;57128.34;10318747;28;20729;-78
2022/08/03 07:58:04;;;;;;;11.65;3.50;;;;;;;-147.53;100.00;57128.34;10337007;28;20053;-83
2022/08/03 08:03:05;;;;;;;9.93;2.88;;;;;;;-147.53;100.00;57128.34;10337068;28;20045;-85
2022/08/03 08:08:07;;;;;;;11.43;2.85;;;;;;;-147.53;100.00;57128.34;10330620;28;20052;-83
2022/08/03 08:13:10;;;;;;;5.97;2.30;;;;;;;-147.53;100.00;57128.34;10311645;28;20580;-82
2022/08/03 08:18:13;;;;;;;18.88;2.85;;;;;;;-147.53;100.00;57128.34;10326567;28;20058;-83
2022/08/03 08:23:23;;;;;;;10.40;2.85;;;;;;;-147.53;100.00;57128.34;10331760;28;20038;-84
2022/08/03 08:28:44;;;;;;;7.40;2.30;;;;;;;-147.53;100.00;57128.34;10331127;28;20129;-84
2022/08/03 08:33:45;;;;;;;10.93;2.50;;;;;;;-147.53;100.00;57128.34;10338789;28;20046;-86
2022/08/03 08:39:04;;;;;;;13.27;3.10;;;;;;;-147.53;100.00;57128.34;10318218;28;20197;-85
2022/08/03 08:44:09;;;;;;;10.27;2.65;;;;;;;-147.53;100.00;57128.34;10347097;28;20065;-84
2022/08/03 08:49:15;;;;;;;10.65;2.42;;;;;;;-147.53;100.00;57128.34;10345510;28;20057;-85
2022/08/03 08:54:20;;;;;;;9.35;2.35;;;;;;;-147.53;100.00;57128.34;10311189;28;20043;-85
2022/08/03 08:59:23;;;;;;;10.10;2.55;;;;;;;-147.53;100.00;57128.34;10334762;28;20104;-83
2022/08/03 09:04:27;;;;;;;6.32;2.15;;;;;;;-147.53;100.00;57128.34;10319150;28;20117;-84
2022/08/03 09:09:30;;;;;;;6.75;2.10;;;;;;;-147.53;100.00;57128.34;10318354;28;20095;-83
2022/08/03 09:14:51;;;;;;;7.43;2.13;;;;;;;-147.53;100.00;57128.34;10345624;28;20531;-85
2022/08/03 09:20:13;;;;;;;8.52;2.13;;;;;;;-147.53;100.00;57128.34;10340744;28;20077;-84
2022/08/03 09:25:15;;;;;;;5.00;1.80;;;;;;;-147.53;100.00;57128.34;10332777;28;20108;-84
2022/08/03 09:30:25;;;;;;;8.32;2.15;;;;;;;-147.53;100.00;57128.34;10325866;28;20105;-84
2022/08/03 09:35:46;;;;;;;8.93;1.80;;;;;;;-147.53;100.00;57128.34;10339823;28;20050;-84
2022/08/03 09:40:58;;;;;;;9.88;2.03;;;;;;;-147.53;100.00;57128.34;10336942;28;20050;-85
2022/08/03 09:46:04;;;;;;;9.75;2.60;;;;;;;-147.53;100.00;57128.34;10317715;28;20049;-86
2022/08/03 09:51:06;;;;;;;7.38;1.90;;;;;;;-147.53;100.00;57128.34;10332195;28;20478;-85
2022/08/03 09:56:14;;;;;;;9.60;2.05;;;;;;;-147.53;100.00;57128.34;10300702;28;20050;-85
2022/08/03 10:01:40;;;;;;;6.53;2.08;;;;;;;-147.53;100.00;57128.34;10340418;28;20458;-83
2022/08/03 10:06:44;;;;;;;7.47;1.85;;;;;;;-147.53;100.00;57128.34;10319941;28;20048;-84
2022/08/03 10:11:46;;;;;;;9.45;1.67;;;;;;;-147.53;100.00;57128.34;10335221;28;20054;-85
2022/08/03 10:16:48;;;;;;;7.25;1.60;;;;;;;-147.53;100.00;57128.34;10342662;28;20474;-85
2022/08/03 10:21:56;;;;;;;6.53;1.55;;;;;;;-147.53;100.00;57128.34;10338238;28;20525;-81
2022/08/03 10:27:07;;;;;;;8.82;1.58;;;;;;;-147.53;100.00;57128.34;10331526;28;20042;-84
2022/08/03 10:32:14;;;;;;;5.47;1.67;;;;;;;-147.53;100.00;57128.34;10306136;28;20057;-86
2022/08/03 10:37:16;;;;;;;;;;;;;;;-147.53;100.00;57128.34;10330832;28;20053;-85
2022/08/03 10:42:21;;;;;;;8.77;1.65;;;;;;;-147.53;100.00;57128.34;10327057;28;19959;-83
2022/08/03 10:47:24;;;;;;;18.20;2.60;;;;;;;-147.53;100.00;57128.34;10309309;28;20081;-84
2022/08/03 10:52:26;;;;;;;9.75;1.80;;;;;;;-147.53;100.00;57128.34;10330915;28;20078;-85
2022/08/03 10:57:52;;;;;;;10.70;1.77;;;;;;;-147.53;100.00;57128.34;10302247;28;20046;-85
2022/08/03 11:03:04;;;;;;;17.95;2.22;;;;;;;-147.53;100.00;57128.34;10315515;28;20042;-84
2022/08/03 11:08:26;;;;;;;12.13;2.17;;;;;;;-147.53;100.00;57128.34;10303297;28;20050;-85
2022/08/03 11:13:32;;;;;;;10.05;1.90;;;;;;;-147.53;100.00;57128.34;10333472;28;20053;-85
2022/08/03 11:18:34;;;;;;;8.68;1.90;;;;;;;-147.53;100.00;57128.34;10341176;28;20046;-87
2022/08/03 11:23:45;;;;;;;9.15;1.83;;;;;;;-147.53;100.00;57128.34;10309330;28;20042;-86
2022/08/03 11:29:26;;;;;;;14.23;1.85;;;;;;;-147.53;100.00;57128.34;10309180;28;20050;-85
2022/08/03 11:34:28;;;;;;;10.50;1.60;;;;;;;-147.53;100.00;57128.34;10325111;28;20043;-83
2022/08/03 11:39:44;;;;;;;8.82;1.98;;;;;;;-147.53;100.00;57128.34;10335681;28;20042;-84
2022/08/03 11:44:46;;;;;;;10.55;2.90;;;;;;;-147.53;100.00;57128.34;10346546;28;20065;-85
2022/08/03 11:49:50;;;;;;;8.85;1.75;;;;;;;-147.53;100.00;57128.34;10337919;28;20050;-83
2022/08/03 11:54:53;;;;;;;11.10;2.13;;;;;;;-147.53;100.00;57128.34;10349211;28;20050;-86
2022/08/03 11:59:57;;;;;;;15.40;2.20;;;;;;;-147.53;100.00;57128.34;10318866;28;20093;-83
2022/08/03 12:05:00;;;;;;;12.40;1.88;;;;;;;-147.53;100.00;57128.34;10339970;28;20050;-84
2022/08/03 12:10:06;;;;;;;12.70;1.92;;;;;;;-147.53;100.00;57128.34;10349722;28;20057;-83
2022/08/03 12:15:09;;;;;;;15.57;2.10;;;;;;;-147.53;100.00;57128.34;10319756;28;20061;-84
2022/08/03 12:20:20;;;;;;;17.63;2.63;;;;;;;-147.53;100.00;57128.34;10312675;28;20133;-84
2022/08/03 12:25:37;;;;;;;9.63;1.70;;;;;;;-147.53;100.00;57128.34;10326493;28;20354;-85
2022/08/03 12:30:41;;;;;;;9.50;1.85;;;;;;;-147.53;100.00;57128.34;10327825;28;20047;-84
2022/08/03 12:35:42;;;;;;;11.52;1.83;;;;;;;-147.53;100.00;57128.34;10337491;28;20047;-84
2022/08/03 12:41:02;;;;;;;11.93;1.90;;;;;;;-147.53;100.00;57128.34;10345956;28;20489;-85
2022/08/03 12:46:16;;;;;;;11.85;1.70;;;;;;;-147.53;100.00;57128.34;10318962;28;20066;-83
2022/08/03 12:51:18;;;;;;;11.35;1.80;;;;;;;-147.53;100.00;57128.34;10333621;28;20480;-83
2022/08/03 12:56:20;;;;;;;8.65;1.75;;;;;;;-147.53;100.00;57128.34;10334959;28;20581;-84
2022/08/03 13:01:23;;;;;;;9.85;1.85;;;;;;;-147.53;100.00;57128.34;10340669;28;20210;-82
2022/08/03 13:06:27;;;;;;;11.73;1.70;;;;;;;-147.53;100.00;57128.34;10342650;28;20528;-84
2022/08/03 13:11:29;;;;;;;9.00;1.67;;;;;;;-147.53;100.00;57128.34;10332425;28;20409;-84
2022/08/03 13:16:51;;;;;;;9.25;1.58;;;;;;;-147.53;100.00;57128.34;10327405;28;20117;-85
2022/08/03 13:21:53;;;;;;;12.15;2.15;;;;;;;-147.53;100.00;57128.34;10329207;28;20145;-85
2022/08/03 13:27:06;;;;;;;9.00;1.50;;;;;;;-147.53;100.00;57128.34;10339549;28;20049;-85
2022/08/03 13:32:28;;;;;;;12.07;2.53;;;;;;;-147.53;100.00;57128.34;10301859;28;20054;-84
2022/08/03 13:37:33;;;;;;;11.60;1.35;;;;;;;-147.53;100.00;57128.34;10324275;28;20525;-85
2022/08/03 13:42:35;;;;;;;8.50;1.52;;;;;;;-147.53;100.00;57128.34;10344392;28;20554;-84
2022/08/03 13:47:37;;;;;;;10.30;1.77;;;;;;;-147.53;100.00;57128.34;10355724;28;20053;-87
2022/08/03 13:52:39;;;;;;;15.48;1.98;;;;;;;-147.53;100.00;57128.34;10343585;28;20077;-83
2022/08/03 13:57:40;;;;;;;13.32;1.75;;;;;;;-147.53;100.00;57128.34;10334580;28;20082;-84
2022/08/03 14:03:02;;;;;;;9.35;1.60;;;;;;;-147.53;100.00;57128.34;10343605;28;20054;-83
2022/08/03 14:08:14;;;;;;;13.85;2.42;;;;;;;-147.53;100.00;57128.34;10326179;28;20045;-78
2022/08/03 14:13:15;;;;;;;16.13;1.80;;;;;;;-147.53;100.00;57128.34;10305633;28;20074;-83
2022/08/03 14:18:20;;;;;;;15.23;2.13;;;;;;;-147.53;100.00;57128.34;10329975;28;20065;-85
2022/08/03 14:23:36;;;;;;;11.73;1.65;;;;;;;-147.53;100.00;57128.34;10312384;28;20056;-84
2022/08/03 14:28:38;;;;;;;10.70;2.00;;;;;;;-147.53;100.00;57128.34;10311567;28;20046;-84
2022/08/03 14:33:39;;;;;;;13.43;1.95;;;;;;;-147.53;100.00;57128.34;10339261;28;20053;-85
2022/08/03 14:38:41;;;;;;;8.00;1.63;;;;;;;-147.53;100.00;57128.34;10334503;28;20073;-85
2022/08/03 14:43:43;;;;;;;13.85;2.33;;;;;;;-147.53;100.00;57128.34;10316812;28;20041;-86
2022/08/03 14:49:04;;;;;;;12.43;1.80;;;;;;;-147.53;100.00;57128.34;10328906;28;20046;-86
2022/08/03 14:54:25;;;;;;;12.70;2.17;;;;;;;-147.53;100.00;57128.34;10313867;28;20078;-84
2022/08/03 14:59:27;;;;;;;9.73;1.75;;;;;;;-147.53;100.00;57128.34;10342700;28;20046;-84
2022/08/03 15:04:49;;;;;;;10.25;1.95;;;;;;;-147.53;100.00;57128.34;10330965;28;20046;-86
2022/08/03 15:09:50;;;;;;;11.32;1.60;;;;;;;-147.53;100.00;57128.34;10312739;28;20425;-84
2022/08/03 15:14:52;;;;;;;15.98;2.47;;;;;;;-147.53;100.00;57128.34;10332418;28;20046;-83
2022/08/03 15:19:54;;;;;;;13.68;1.83;;;;;;;-147.53;100.00;57128.34;10319530;28;20047;-85
2022/08/03 15:25:06;;;;;;;9.60;1.60;;;;;;;-147.53;100.00;57128.34;10325058;28;20513;-82
2022/08/03 15:30:30;;;;;;;12.73;1.80;;;;;;;-147.53;100.00;57128.34;10321234;28;20046;-87
2022/08/03 15:35:34;;;;;;;9.10;1.60;;;;;;;-147.53;100.00;57128.34;10336408;28;20054;-84
2022/08/03 15:40:36;;;;;;;7.95;1.67;;;;;;;-147.53;100.00;57128.34;10345684;28;20137;-84
2022/08/03 15:45:39;;;;;;;13.00;2.85;;;;;;;-147.53;100.00;57128.34;10321205;28;20042;-81
2022/08/03 15:50:42;;;;;;;8.43;1.67;;;;;;;-147.53;100.00;57128.34;10337094;28;20494;-83
2022/08/03 15:55:44;;;;;;;12.73;2.13;;;;;;;-147.53;100.00;57128.34;10336554;28;20053;-83
2022/08/03 16:00:46;;;;;;;10.52;2.30;;;;;;;-147.53;100.00;57128.34;10349765;28;20108;-84
2022/08/03 16:05:47;;;;;;;13.13;2.17;;;;;;;-147.53;100.00;57128.34;10334654;28;20045;-83
2022/08/03 16:10:50;;;;;;;14.20;2.60;;;;;;;-147.53;100.00;57128.34;10325013;28;20065;-84
2022/08/03 16:15:53;;;;;;;11.60;1.90;;;;;;;-147.53;100.00;57128.34;10348384;28;20077;-84
2022/08/03 16:20:54;;;;;;;16.25;2.13;;;;;;;-147.53;100.00;57128.34;10327408;28;20070;-84
2022/08/03 16:25:56;;;;;;;11.40;1.65;;;;;;;-147.53;100.00;57128.34;10338265;28;20561;-85
2022/08/03 16:30:57;;;;;;;14.60;2.30;;;;;;;-147.53;100.00;57128.34;10326599;28;20141;-86
2022/08/03 16:35:59;;;;;;;17.70;3.67;;;;;;;-147.53;100.00;57128.34;10344208;28;20064;-85
2022/08/03 16:41:01;;;;;;;19.88;2.67;;;;;;;-147.53;100.00;57128.34;10355999;28;20117;-83
2022/08/03 16:46:02;;;;;;;52.38;36.17;;;;;;;-147.53;100.00;57128.34;10356138;28;20122;-83
2022/08/03 16:51:04;;;;;;;21.08;7.32;;;;;;;-147.53;100.00;57128.34;10353438;28;20088;-82
2022/08/03 16:56:08;;;;;;;30.63;17.15;;;;;;;-147.53;100.00;57128.34;10352114;28;20077;-83
2022/08/03 17:01:12;;;;;;;57.83;36.47;;;;;;;-147.53;100.00;57128.34;10347408;28;20498;-83
2022/08/03 17:06:24;;;;;;;196.57;139.57;;;;;;;-147.53;100.00;57128.34;10312317;28;20038;-83
2022/08/03 17:11:37;;;;;;;180.80;138.00;;;;;;;-147.53;100.00;57128.34;10351438;28;20060;-83
2022/08/03 17:16:46;;;;;;;137.15;99.30;;;;;;;-147.53;100.00;57128.34;10356216;28;20488;-83
2022/08/03 17:22:09;;;;;;;32.58;18.92;;;;;;;-147.53;100.00;57128.34;10349622;28;20106;-83
2022/08/03 17:27:17;;;;;;;41.10;25.27;;;;;;;-147.53;100.00;57128.34;10318816;28;20085;-82
2022/08/03 17:32:41;;;;;;;26.13;10.88;;;;;;;-147.53;100.00;57128.34;10330817;28;20046;-83
2022/08/03 17:37:58;;;;;;;19.60;3.17;;;;;;;-147.53;100.00;57128.34;10306319;28;20077;-83
2022/08/03 17:43:05;;;;;;;8.88;2.47;;;;;;;-147.53;100.00;57128.34;10345474;28;20307;-83
2022/08/03 17:48:26;;;;;;;12.40;2.45;;;;;;;-147.53;100.00;57128.34;10319746;28;20054;-84
2022/08/03 17:53:35;;;;;;;18.27;2.63;;;;;;;-147.53;100.00;57128.34;10343861;28;20076;-83
2022/08/03 17:58:57;;;;;;;15.68;2.45;;;;;;;-147.53;100.00;57128.34;10313102;28;20157;-84
2022/08/03 18:04:03;;;;;;;12.48;2.90;;;;;;;-147.53;100.00;57128.34;10350771;28;20064;-84
2022/08/03 18:09:13;;;;;;;13.95;2.70;;;;;;;-147.53;100.00;57128.34;10343792;28;20046;-84
2022/08/03 18:14:58;;;;;;;12.60;3.30;;;;;;;-147.53;100.00;57128.34;10318433;28;20137;-84
2022/08/03 18:20:09;;;;;;;24.08;5.60;;;;;;;-147.53;100.00;57128.34;10332921;28;20058;-84
2022/08/03 18:25:31;;;;;;;19.55;5.18;;;;;;;-147.53;100.00;57128.34;10338689;28;20425;-84
2022/08/03 18:30:46;;;;;;;17.98;4.40;;;;;;;-147.53;100.00;57128.34;10319985;28;20061;-82
2022/08/03 18:35:56;;;;;;;33.08;5.57;;;;;;;-147.53;100.00;57128.34;10329787;28;20042;-79
2022/08/03 18:40:58;;;;;;;23.20;5.32;;;;;;;-147.53;100.00;57128.34;10345502;28;20109;-80
2022/08/03 18:54:55;;;;;;;25.92;6.65;;;;;;;24.68;67.21;101292.91;10483650;27;20606;-83
2022/08/03 19:00:16;;;;;;;27.35;6.13;;;;;;;24.52;68.21;101301.41;10442926;28;20127;-84
2022/08/03 19:05:27;;;;;;;27.63;5.22;;;;;;;24.46;68.76;101309.66;10350084;23;20168;-87
2022/08/03 19:10:55;;;;;;;30.13;5.53;;;;;;;24.14;69.76;101314.25;10278178;28;20149;-85
2022/08/03 19:16:03;;;;;;;18.85;4.47;;;;;;;23.96;70.70;101322.81;10271218;28;20177;-85
2022/08/03 19:21:09;;;;;;;21.98;4.70;;;;;;;23.74;71.53;101320.75;10200482;28;20497;-87
2022/08/03 19:26:16;;;;;;;21.88;5.10;;;;;;;23.51;72.38;101323.22;10248003;28;20054;-85
2022/08/03 19:31:38;;;;;;;;;;;;;;;23.38;73.01;101326.25;10247617;28;20070;-87
2022/08/03 19:37:03;;;;;;;23.23;5.45;;;;;;;23.18;73.79;101325.91;10237485;28;20013;-86
2022/08/03 19:42:11;;;;;;;21.30;5.45;;;;;;;22.87;74.58;101332.03;10250210;28;20071;-84
2022/08/03 19:47:38;;;;;;;18.63;4.85;;;;;;;22.76;75.37;101335.84;10239731;28;20386;-87
2022/08/03 19:52:45;;;;;;;;;;;;;;;22.67;75.93;101329.84;10248111;28;20515;-85
2022/08/03 19:57:52;;;;;;;19.45;4.85;;;;;;;22.50;76.35;101343.63;10233790;28;19922;-87
2022/08/03 20:03:00;;;;;;;21.38;4.70;;;;;;;22.30;76.79;101342.25;10226286;28;20135;-85
2022/08/03 20:08:04;;;;;;;20.77;4.43;;;;;;;22.19;77.14;101338.97;10199669;29;20464;-85
2022/08/03 20:13:06;;;;;;;23.20;5.65;;;;;;;22.04;77.52;101340.19;10180398;29;20048;-84
2022/08/03 20:18:08;;;;;;;23.40;5.20;;;;;;;21.93;77.87;101343.06;10192939;29;20454;-85
2022/08/03 20:23:18;;;;;;;19.88;4.90;;;;;;;21.84;78.26;101343.25;10190123;29;20103;-86
2022/08/03 20:28:33;;;;;;;21.13;5.60;;;;;;;21.75;78.54;101340.78;10187950;29;20043;-86
2022/08/03 20:34:14;;;;;;;26.02;5.82;;;;;;;21.73;78.92;101337.28;10184873;29;20051;-86
2022/08/03 20:39:57;;;;;;;21.92;5.35;;;;;;;21.56;79.15;101329.63;10181848;29;20066;-85
2022/08/03 20:45:42;;;;;;;21.95;5.88;;;;;;;21.38;79.83;101326.41;10173709;29;20524;-88
2022/08/03 20:51:15;;;;;;;16.83;5.40;;;;;;;21.33;80.18;101330.91;10122807;28;20710;-85
2022/08/03 20:56:55;;;;;;;26.08;5.90;;;;;;;21.25;80.57;101332.88;10192863;29;20040;-86
2022/08/03 21:02:24;;;;;;;22.98;6.22;;;;;;;21.24;80.68;101326.63;10171938;28;20047;-86
2022/08/03 21:08:16;;;;;;;27.67;6.20;;;;;;;21.17;80.82;101325.03;10198165;29;20678;-87
2022/08/03 21:14:11;;;;;;;23.30;6.22;;;;;;;21.09;81.01;101318.94;10175343;29;20078;-87
2022/08/03 21:20:17;;;;;;;;;;;;;;;;;;;;;
2022/08/03 21:32:09;;;;;;;27.92;6.70;;;;;;;20.75;82.17;101299.13;10179838;29;20060;-86
2022/08/03 21:44:23;;;;;;;25.90;7.40;;;;;;;20.58;82.72;101310.03;10189677;29;20139;-88
2022/08/03 21:50:35;;;;;;;26.25;6.95;;;;;;;20.51;83.11;101300.38;10164042;29;20035;-85
2022/08/03 21:56:15;;;;;;;26.63;8.02;;;;;;;20.39;83.45;101300.59;10146372;29;20421;-86
2022/08/03 22:02:03;;;;;;;22.92;7.10;;;;;;;20.35;83.61;101282.91;10197779;28;20145;-86
2022/08/03 22:07:33;;;;;;;31.33;8.27;;;;;;;20.19;83.86;101290.22;10204180;28;20606;-86
2022/08/03 22:13:21;;;;;;;26.55;9.85;;;;;;;20.07;84.61;101289.53;10213232;28;20668;-86
2022/08/03 22:24:58;;;;;;;23.67;8.93;;;;;;;19.90;85.22;101278.25;10202153;28;20069;-86
2022/08/03 22:31:06;;;;;;;28.27;9.95;;;;;;;19.90;85.53;101279.13;10038510;29;20554;-85
2022/08/03 22:36:46;;;;;;;27.88;10.07;;;;;;;19.84;85.65;101273.03;9997049;29;20137;-85
2022/08/03 22:47:50;;;;;;;25.63;10.00;;;;;;;19.67;86.26;101271.44;10031520;29;20045;-86
2022/08/03 22:53:11;;;;;;;21.13;8.37;;;;;;;19.58;86.64;101275.06;10038423;29;20076;-88
2022/08/03 22:58:53;;;;;;;27.02;10.95;;;;;;;19.54;86.81;101272.47;10031290;29;20063;-85
2022/08/03 23:04:06;;;;;;;24.15;9.73;;;;;;;19.51;86.93;101270.72;10044721;29;20053;-87
2022/08/03 23:09:41;;;;;;;26.58;10.52;;;;;;;19.44;86.95;101261.06;10130041;29;20090;-87
2022/08/03 23:15:34;;;;;;;26.85;10.07;;;;;;;19.38;87.20;101267.38;10151701;28;20067;-86
2022/08/03 23:21:19;;;;;;;21.88;10.23;;;;;;;19.30;87.39;101261.25;10211289;28;20054;-86
2022/08/03 23:27:24;;;;;;;28.83;11.35;;;;;;;19.28;87.99;101243.59;10206145;28;20055;-86
2022/08/03 23:32:54;;;;;;;;;;;;;;;;;;;;;
2022/08/03 23:38:44;;;;;;;21.70;10.93;;;;;;;19.17;88.21;101241.94;10210608;28;20047;-86
2022/08/03 23:44:27;;;;;;;27.80;11.45;;;;;;;19.12;88.43;101245.53;10216325;28;20044;-86
2022/08/03 23:50:41;;;;;;;22.33;10.57;;;;;;;19.04;88.86;101243.84;10198860;28;20060;-86
2022/08/03 23:56:49;;;;;;;28.80;12.00;;;;;;;19.02;89.14;101245.66;10197311;28;20043;-86
